createdAt,value
2018-04-08T00:00:10.766Z,99.90
2018-04-08T00:02:38.237Z,99.90
2018-04-08T00:05:05.718Z,99.90
2018-04-08T00:07:33.219Z,99.90
2018-04-08T00:10:00.755Z,99.90
2018-04-08T00:12:28.994Z,99.90
2018-04-08T00:14:56.517Z,99.90
2018-04-08T00:17:24.766Z,99.90
2018-04-08T00:19:52.242Z,99.90
2018-04-08T00:22:19.746Z,99.90
2018-04-08T00:24:48.033Z,99.90
2018-04-08T00:27:16.284Z,99.90
2018-04-08T00:29:43.757Z,99.90
2018-04-08T00:32:11.269Z,99.90
2018-04-08T00:34:39.510Z,99.90
2018-04-08T00:37:07.026Z,99.90
2018-04-08T00:39:35.290Z,99.90
2018-04-08T00:42:02.761Z,99.90
2018-04-08T00:44:30.263Z,99.90
2018-04-08T00:46:58.505Z,99.90
2018-04-08T00:49:26.007Z,99.90
2018-04-08T00:51:53.505Z,99.90
2018-04-08T00:54:30.582Z,99.90
2018-04-08T00:56:58.857Z,99.90
2018-04-08T00:59:26.329Z,99.90
2018-04-08T01:01:53.834Z,99.90
2018-04-08T01:04:21.364Z,99.90
2018-04-08T01:06:48.851Z,99.90
2018-04-08T01:09:17.098Z,99.90
2018-04-08T01:11:44.600Z,99.90
2018-04-08T01:14:12.072Z,99.90
2018-04-08T01:16:39.580Z,99.90
2018-04-08T01:19:07.071Z,99.90
2018-04-08T01:21:34.578Z,99.90
2018-04-08T01:24:02.822Z,99.90
2018-04-08T01:26:30.338Z,99.90
2018-04-08T01:28:57.823Z,99.90
2018-04-08T01:31:26.065Z,99.90
2018-04-08T01:33:53.564Z,99.90
2018-04-08T01:36:21.055Z,99.90
2018-04-08T01:38:49.319Z,99.90
2018-04-08T01:41:16.797Z,99.90
2018-04-08T01:43:44.303Z,99.90
2018-04-08T01:46:11.784Z,99.90
2018-04-08T01:48:39.284Z,99.90
2018-04-08T01:51:06.755Z,99.90
2018-04-08T01:53:34.257Z,99.90
2018-04-08T01:56:01.729Z,99.90
2018-04-08T01:58:29.290Z,99.90
2018-04-08T02:00:56.769Z,99.90
2018-04-08T02:03:24.249Z,99.90
2018-04-08T02:05:52.505Z,99.90
2018-04-08T02:08:19.982Z,99.90
2018-04-08T02:10:47.501Z,99.90
2018-04-08T02:13:15.004Z,99.90
2018-04-08T02:15:42.502Z,99.90
2018-04-08T02:18:09.974Z,99.90
2018-04-08T02:20:37.478Z,99.90
2018-04-08T02:23:04.994Z,99.90
2018-04-08T02:25:32.466Z,99.90
2018-04-08T02:27:59.946Z,99.90
2018-04-08T02:30:27.473Z,99.90
2018-04-08T02:32:54.960Z,99.90
2018-04-08T02:35:22.430Z,99.90
2018-04-08T02:37:49.926Z,99.90
2018-04-08T02:40:17.429Z,99.90
2018-04-08T02:42:45.683Z,99.90
2018-04-08T02:45:13.182Z,99.90
2018-04-08T02:47:41.462Z,99.90
2018-04-08T02:50:08.956Z,99.90
2018-04-08T02:52:36.458Z,99.90
2018-04-08T02:55:03.949Z,99.90
2018-04-08T02:57:31.437Z,99.90
2018-04-08T02:59:58.953Z,99.90
2018-04-08T03:02:26.435Z,99.90
2018-04-08T03:04:53.935Z,99.90
2018-04-08T03:07:21.456Z,99.90
2018-04-08T03:09:48.952Z,99.90
2018-04-08T03:12:16.473Z,99.90
2018-04-08T03:14:43.975Z,99.90
2018-04-08T03:17:11.504Z,99.90
2018-04-08T03:19:38.983Z,99.90
2018-04-08T03:22:06.500Z,99.90
2018-04-08T03:24:34.072Z,99.90
2018-04-08T03:27:01.550Z,99.90
2018-04-08T03:29:29.050Z,99.90
2018-04-08T03:31:56.526Z,99.90
2018-04-08T03:34:24.078Z,99.90
2018-04-08T03:36:51.591Z,99.90
2018-04-08T03:39:19.838Z,99.90
2018-04-08T03:41:47.339Z,99.90
2018-04-08T03:44:14.818Z,99.90
2018-04-08T03:46:43.086Z,99.90
2018-04-08T03:49:10.586Z,99.90
2018-04-08T03:51:38.829Z,99.90
2018-04-08T03:54:06.320Z,99.90
2018-04-08T03:56:33.822Z,99.90
2018-04-08T03:59:01.293Z,99.90
2018-04-08T04:01:29.553Z,99.90
2018-04-08T04:03:57.810Z,99.90
2018-04-08T04:06:25.339Z,99.90
2018-04-08T04:08:53.584Z,99.90
2018-04-08T04:11:21.104Z,99.90
2018-04-08T04:13:48.633Z,99.90
2018-04-08T04:16:16.308Z,99.90
2018-04-08T04:18:55.570Z,99.90
2018-04-08T04:21:34.798Z,99.90
2018-04-08T04:24:13.947Z,99.90
2018-04-08T04:26:41.445Z,99.90
2018-04-08T04:29:09.718Z,99.90
2018-04-08T04:31:37.226Z,99.90
2018-04-08T04:34:04.763Z,99.90
2018-04-08T04:36:32.246Z,99.90
2018-04-08T04:38:59.745Z,99.90
2018-04-08T04:41:27.245Z,99.90
2018-04-08T04:43:54.748Z,99.90
2018-04-08T04:46:22.235Z,99.90
2018-04-08T04:48:50.500Z,99.90
2018-04-08T04:51:18.023Z,99.90
2018-04-08T04:53:46.225Z,99.90
2018-04-08T04:56:13.726Z,99.90
2018-04-08T04:58:41.201Z,99.90
2018-04-08T05:01:08.715Z,99.90
2018-04-08T05:03:36.330Z,99.90
2018-04-08T05:06:03.835Z,99.90
2018-04-08T05:08:32.111Z,99.90
2018-04-08T05:10:59.593Z,99.90
2018-04-08T05:13:27.866Z,99.90
2018-04-08T05:15:55.342Z,99.90
2018-04-08T05:18:22.829Z,99.90
2018-04-08T05:20:51.062Z,99.90
2018-04-08T05:23:18.570Z,99.90
2018-04-08T05:25:46.053Z,99.90
2018-04-08T05:28:14.291Z,99.90
2018-04-08T05:30:41.793Z,99.90
2018-04-08T05:33:09.291Z,99.90
2018-04-08T05:35:37.573Z,99.90
2018-04-08T05:38:05.821Z,99.90
2018-04-08T05:40:33.303Z,99.90
2018-04-08T05:43:00.834Z,99.90
2018-04-08T05:45:28.316Z,99.90
2018-04-08T05:47:55.850Z,99.90
2018-04-08T05:50:24.094Z,99.90
2018-04-08T05:52:51.569Z,99.90
2018-04-08T05:55:19.075Z,99.90
2018-04-08T05:57:47.366Z,99.90
2018-04-08T06:00:15.606Z,99.90
2018-04-08T06:02:43.089Z,99.90
2018-04-08T06:05:10.596Z,99.90
2018-04-08T06:07:38.874Z,99.90
2018-04-08T06:10:06.432Z,99.90
2018-04-08T06:12:33.872Z,99.90
2018-04-08T06:15:01.374Z,99.90
2018-04-08T06:17:28.919Z,99.90
2018-04-08T06:19:56.416Z,99.90
2018-04-08T06:22:23.914Z,99.90
2018-04-08T06:24:52.182Z,99.90
2018-04-08T06:27:19.686Z,99.90
2018-04-08T06:29:47.161Z,99.90
2018-04-08T06:32:14.657Z,99.90
2018-04-08T06:34:42.186Z,99.90
2018-04-08T06:37:10.426Z,99.90
2018-04-08T06:39:37.926Z,99.90
2018-04-08T06:42:05.427Z,99.90
2018-04-08T06:44:32.941Z,99.90
2018-04-08T06:47:00.513Z,99.90
2018-04-08T06:49:28.034Z,99.90
2018-04-08T06:51:55.482Z,99.90
2018-04-08T06:54:22.980Z,99.90
2018-04-08T06:56:50.446Z,99.90
2018-04-08T06:59:17.942Z,99.90
2018-04-08T07:01:45.448Z,99.90
2018-04-08T07:04:12.965Z,99.90
2018-04-08T07:06:40.434Z,99.90
2018-04-08T07:09:07.980Z,99.90
2018-04-08T07:11:36.290Z,99.90
2018-04-08T07:14:03.757Z,99.90
2018-04-08T07:16:31.241Z,99.90
2018-04-08T07:18:58.765Z,99.90
2018-04-08T07:21:26.243Z,99.90
2018-04-08T07:23:53.730Z,99.90
2018-04-08T07:26:21.977Z,99.90
2018-04-08T07:28:49.477Z,99.90
2018-04-08T07:31:16.955Z,99.90
2018-04-08T07:33:45.209Z,99.90
2018-04-08T07:36:12.697Z,99.90
2018-04-08T07:38:40.189Z,99.90
2018-04-08T07:41:08.450Z,99.90
2018-04-08T07:43:35.937Z,99.90
2018-04-08T07:46:03.415Z,99.90
2018-04-08T07:48:31.679Z,99.90
2018-04-08T07:50:59.229Z,99.90
2018-04-08T07:53:26.736Z,99.90
2018-04-08T07:55:54.986Z,99.90
2018-04-08T07:58:22.502Z,99.90
2018-04-08T08:00:49.981Z,99.90
2018-04-08T08:03:17.469Z,99.90
2018-04-08T08:05:44.983Z,99.90
2018-04-08T08:08:12.466Z,99.90
2018-04-08T08:10:39.962Z,99.90
2018-04-08T08:13:07.456Z,99.90
2018-04-08T08:15:34.970Z,99.90
2018-04-08T08:18:02.446Z,99.90
2018-04-08T08:20:29.925Z,99.90
2018-04-08T08:22:57.412Z,99.90
2018-04-08T08:25:25.658Z,99.90
2018-04-08T08:27:53.155Z,99.90
2018-04-08T08:30:20.634Z,99.90
2018-04-08T08:32:48.905Z,99.90
2018-04-08T08:35:16.375Z,99.90
2018-04-08T08:37:44.629Z,99.90
2018-04-08T08:40:12.145Z,99.90
2018-04-08T08:42:40.389Z,99.90
2018-04-08T08:45:07.881Z,99.90
2018-04-08T08:47:35.358Z,99.90
2018-04-08T08:50:02.854Z,99.90
2018-04-08T08:52:31.105Z,99.90
2018-04-08T08:54:58.810Z,99.90
2018-04-08T08:57:27.066Z,99.90
2018-04-08T08:59:54.542Z,99.90
2018-04-08T09:02:22.026Z,99.90
2018-04-08T09:04:49.508Z,99.90
2018-04-08T09:07:17.029Z,99.90
2018-04-08T09:09:44.498Z,99.90
2018-04-08T09:12:11.990Z,99.90
2018-04-08T09:14:39.478Z,99.90
2018-04-08T09:17:06.988Z,99.90
2018-04-08T09:19:40.044Z,98.00
2018-04-08T09:22:13.070Z,98.20
2018-04-08T09:27:41.285Z,97.10
2018-04-08T09:30:08.780Z,93.20
2018-04-08T09:32:36.257Z,95.00
2018-04-08T09:35:03.730Z,94.50
2018-04-08T09:37:31.249Z,93.20
2018-04-08T09:39:58.743Z,91.90
2018-04-08T09:42:27.006Z,90.80
2018-04-08T09:44:54.478Z,90.40
2018-04-08T09:47:21.982Z,94.20
2018-04-08T09:49:50.235Z,80.80
2018-04-08T09:52:17.702Z,80.80
2018-04-08T09:54:45.197Z,73.50
2018-04-08T09:57:12.686Z,71.30
2018-04-08T09:59:40.942Z,67.10
2018-04-08T10:02:14.219Z,66.90
2018-04-08T10:04:41.720Z,65.10
2018-04-08T10:07:09.195Z,63.80
2018-04-08T10:09:36.683Z,63.50
2018-04-08T10:12:04.979Z,62.50
2018-04-08T10:14:32.436Z,62.50
2018-04-08T10:16:59.914Z,62.90
2018-04-08T10:19:28.146Z,61.90
2018-04-08T10:21:55.629Z,61.90
2018-04-08T10:24:23.102Z,61.60
2018-04-08T10:26:50.598Z,63.20
2018-04-08T10:29:18.116Z,63.00
2018-04-08T10:31:46.342Z,61.20
2018-04-08T10:34:13.823Z,61.20
2018-04-08T10:36:41.327Z,60.90
2018-04-08T10:39:08.811Z,60.90
2018-04-08T10:41:36.282Z,60.40
2018-04-08T10:44:03.766Z,60.90
2018-04-08T10:46:31.242Z,59.20
2018-04-08T10:48:58.737Z,58.50
2018-04-08T10:51:26.214Z,57.80
2018-04-08T10:53:53.706Z,56.00
2018-04-08T10:56:21.944Z,55.70
2018-04-08T10:58:49.447Z,55.70
2018-04-08T11:01:16.926Z,55.20
2018-04-08T11:03:45.171Z,55.80
2018-04-08T11:06:12.658Z,55.60
2018-04-08T11:08:40.134Z,55.00
2018-04-08T11:11:07.655Z,54.70
2018-04-08T11:13:35.126Z,55.80
2018-04-08T11:16:02.618Z,61.00
2018-04-08T11:18:30.094Z,58.70
2018-04-08T11:20:57.606Z,56.80
2018-04-08T11:23:25.082Z,57.30
2018-04-08T11:25:53.326Z,58.50
2018-04-08T11:28:20.822Z,58.50
2018-04-08T11:30:48.300Z,59.30
2018-04-08T11:33:15.807Z,55.60
2018-04-08T11:35:43.298Z,58.40
2018-04-08T11:38:10.787Z,59.30
2018-04-08T11:40:38.258Z,55.10
2018-04-08T11:43:05.779Z,55.40
2018-04-08T11:45:34.044Z,56.60
2018-04-08T11:48:02.290Z,61.00
2018-04-08T11:50:29.777Z,61.00
2018-04-08T11:52:57.270Z,57.20
2018-04-08T11:55:24.762Z,54.60
2018-04-08T11:57:53.002Z,53.90
2018-04-08T12:00:20.502Z,53.80
2018-04-08T12:02:47.980Z,52.70
2018-04-08T12:05:16.267Z,55.00
2018-04-08T12:07:43.746Z,54.80
2018-04-08T12:10:11.990Z,54.10
2018-04-08T12:12:39.506Z,54.10
2018-04-08T12:15:07.780Z,55.70
2018-04-08T12:17:36.037Z,57.80
2018-04-08T12:20:03.518Z,58.30
2018-04-08T12:22:31.010Z,55.10
2018-04-08T12:24:58.481Z,58.10
2018-04-08T12:27:25.994Z,53.90
2018-04-08T12:29:53.462Z,53.10
2018-04-08T12:32:20.942Z,51.50
2018-04-08T12:34:48.443Z,57.70
2018-04-08T12:37:15.936Z,58.70
2018-04-08T12:39:43.486Z,54.30
2018-04-08T12:42:10.961Z,59.20
2018-04-08T12:44:38.453Z,55.60
2018-04-08T12:47:06.694Z,58.70
2018-04-08T12:49:34.195Z,58.30
2018-04-08T12:52:01.666Z,58.60
2018-04-08T12:54:29.149Z,54.40
2018-04-08T12:56:56.657Z,54.50
2018-04-08T12:59:24.133Z,55.00
2018-04-08T13:01:51.621Z,56.00
2018-04-08T13:04:19.469Z,54.00
2018-04-08T13:06:46.962Z,58.00
2018-04-08T13:09:14.434Z,60.00
2018-04-08T13:11:41.914Z,59.80
2018-04-08T13:14:09.429Z,56.20
2018-04-08T13:16:36.906Z,58.40
2018-04-08T13:19:05.157Z,57.80
2018-04-08T13:21:32.644Z,57.80
2018-04-08T13:24:00.138Z,56.30
2018-04-08T13:26:27.652Z,56.30
2018-04-08T13:28:55.162Z,62.00
2018-04-08T13:31:22.639Z,59.80
2018-04-08T13:33:50.893Z,58.40
2018-04-08T13:36:18.394Z,58.20
2018-04-08T13:38:45.877Z,59.70
2018-04-08T13:41:14.134Z,58.00
2018-04-08T13:43:41.609Z,58.00
2018-04-08T13:46:09.101Z,58.70
2018-04-08T13:48:37.338Z,56.60
2018-04-08T13:51:04.849Z,56.60
2018-04-08T13:53:32.327Z,55.80
2018-04-08T13:56:00.569Z,56.00
2018-04-08T13:58:28.061Z,55.90
2018-04-08T14:00:55.538Z,55.90
2018-04-08T14:03:23.030Z,55.70
2018-04-08T14:05:51.279Z,55.30
2018-04-08T14:08:18.786Z,55.30
2018-04-08T14:10:46.258Z,54.80
2018-04-08T14:13:14.513Z,55.70
2018-04-08T14:15:42.014Z,55.70
2018-04-08T14:18:09.567Z,54.90
2018-04-08T14:20:37.032Z,54.40
2018-04-08T14:23:04.510Z,54.60
2018-04-08T14:25:32.006Z,54.40
2018-04-08T14:28:00.238Z,55.50
2018-04-08T14:30:27.732Z,55.50
2018-04-08T14:32:55.216Z,54.60
2018-04-08T14:35:22.690Z,55.60
2018-04-08T14:37:50.201Z,55.70
2018-04-08T14:40:17.683Z,56.50
2018-04-08T14:42:45.174Z,56.60
2018-04-08T14:45:13.424Z,56.40
2018-04-08T14:47:40.926Z,56.40
2018-04-08T14:50:08.394Z,56.30
2018-04-08T14:52:35.889Z,57.60
2018-04-08T14:55:03.389Z,52.90
2018-04-08T14:57:31.643Z,54.50
2018-04-08T14:59:59.138Z,54.40
2018-04-08T15:02:27.394Z,56.20
2018-04-08T15:04:54.907Z,56.20
2018-04-08T15:07:23.158Z,50.50
2018-04-08T15:09:50.657Z,50.50
2018-04-08T15:12:18.157Z,51.60
2018-04-08T15:14:45.972Z,55.30
2018-04-08T15:17:13.445Z,51.50
2018-04-08T15:19:40.926Z,49.90
2018-04-08T15:22:08.428Z,51.80
2018-04-08T15:24:36.666Z,52.20
2018-04-08T15:27:04.166Z,52.20
2018-04-08T15:29:31.641Z,54.60
2018-04-08T15:31:59.138Z,51.00
2018-04-08T15:34:26.631Z,52.50
2018-04-08T15:36:54.130Z,49.60
2018-04-08T15:39:21.601Z,50.00
2018-04-08T15:41:49.080Z,49.70
2018-04-08T15:44:16.567Z,50.20
2018-04-08T15:46:44.046Z,49.10
2018-04-08T15:49:12.304Z,47.80
2018-04-08T15:51:39.838Z,47.80
2018-04-08T15:54:07.349Z,46.30
2018-04-08T15:56:34.844Z,47.50
2018-04-08T15:59:02.321Z,47.30
2018-04-08T16:01:30.578Z,46.70
2018-04-08T16:03:58.058Z,46.60
2018-04-08T16:06:25.546Z,47.00
2018-04-08T16:08:53.025Z,46.50
2018-04-08T16:11:21.286Z,46.40
2018-04-08T16:13:48.765Z,46.40
2018-04-08T16:16:16.234Z,47.30
2018-04-08T16:18:43.723Z,44.60
2018-04-08T16:21:11.970Z,45.10
2018-04-08T16:23:39.463Z,45.00
2018-04-08T16:26:06.954Z,45.00
2018-04-08T16:28:35.229Z,45.50
2018-04-08T16:31:03.500Z,44.60
2018-04-08T16:33:30.987Z,44.50
2018-04-08T16:35:58.469Z,44.40
2018-04-08T16:38:26.715Z,46.10
2018-04-08T16:40:54.222Z,46.00
2018-04-08T16:43:21.709Z,46.00
2018-04-08T16:45:49.974Z,48.40
2018-04-08T16:48:17.450Z,48.30
2018-04-08T16:50:44.944Z,48.60
2018-04-08T16:53:13.183Z,48.60
2018-04-08T16:55:40.686Z,48.60
2018-04-08T16:58:08.926Z,51.30
2018-04-08T17:00:36.396Z,51.30
2018-04-08T17:03:03.886Z,52.80
2018-04-08T17:05:32.134Z,54.90
2018-04-08T17:07:59.632Z,55.50
2018-04-08T17:10:27.674Z,55.10
2018-04-08T17:12:56.030Z,55.80
2018-04-08T17:15:23.510Z,55.80
2018-04-08T17:17:51.010Z,55.80
2018-04-08T17:20:18.494Z,56.30
2018-04-08T17:22:45.969Z,57.10
2018-04-08T17:25:13.476Z,57.40
2018-04-08T17:27:40.950Z,58.30
2018-04-08T17:30:08.449Z,58.10
2018-04-08T17:32:36.710Z,58.50
2018-04-08T17:35:04.203Z,58.50
2018-04-08T17:37:32.449Z,59.40
2018-04-08T17:39:59.958Z,59.40
2018-04-08T17:42:28.234Z,62.00
2018-04-08T17:44:55.718Z,61.30
2018-04-08T17:47:23.980Z,66.70
2018-04-08T17:49:51.458Z,66.70
2018-04-08T17:52:18.953Z,68.00
2018-04-08T17:54:47.217Z,70.30
2018-04-08T17:57:14.705Z,70.30
2018-04-08T17:59:42.182Z,71.60
2018-04-08T18:02:10.421Z,72.00
2018-04-08T18:04:37.927Z,71.90
2018-04-08T18:07:05.409Z,73.40
2018-04-08T18:09:33.666Z,76.00
2018-04-08T18:12:01.146Z,76.00
2018-04-08T18:14:28.641Z,78.50
2018-04-08T18:16:56.891Z,80.50
2018-04-08T18:19:24.443Z,80.40
2018-04-08T18:21:51.950Z,80.70
2018-04-08T18:24:19.478Z,82.50
2018-04-08T18:26:47.719Z,85.20
2018-04-08T18:29:15.982Z,86.70
2018-04-08T18:31:43.501Z,86.80
2018-04-08T18:34:11.745Z,91.80
2018-04-08T18:36:39.237Z,91.80
2018-04-08T18:39:06.766Z,93.40
2018-04-08T18:41:34.227Z,93.90
2018-04-08T18:44:01.718Z,94.60
2018-04-08T18:46:29.202Z,95.80
2018-04-08T18:48:56.695Z,96.80
2018-04-08T18:51:24.207Z,98.80
2018-04-08T18:53:51.695Z,99.90
2018-04-08T18:56:19.171Z,99.90
2018-04-08T18:58:46.677Z,99.90
2018-04-08T19:01:14.171Z,99.90
2018-04-08T19:03:42.454Z,99.90
2018-04-08T19:06:10.700Z,99.90
2018-04-08T19:08:38.182Z,99.90
2018-04-08T19:11:05.670Z,99.90
2018-04-08T19:13:33.919Z,99.90
2018-04-08T19:16:01.420Z,99.90
2018-04-08T19:18:28.917Z,99.90
2018-04-08T19:20:57.173Z,99.90
2018-04-08T19:23:24.651Z,99.90
2018-04-08T19:25:52.142Z,99.90
2018-04-08T19:28:20.385Z,99.90
2018-04-08T19:30:47.882Z,99.90
2018-04-08T19:33:15.372Z,99.90
2018-04-08T19:35:43.631Z,99.90
2018-04-08T19:38:11.128Z,99.90
2018-04-08T19:40:39.394Z,99.90
2018-04-08T19:43:06.873Z,99.90
2018-04-08T19:45:34.359Z,99.90
2018-04-08T19:48:02.626Z,99.90
2018-04-08T19:50:30.106Z,99.90
2018-04-08T19:52:58.374Z,99.90
2018-04-08T19:55:25.846Z,99.90
2018-04-08T19:57:53.342Z,99.90
2018-04-08T20:00:21.584Z,99.90
2018-04-08T20:02:49.071Z,99.90
2018-04-08T20:05:16.571Z,99.90
2018-04-08T20:07:44.809Z,99.90
2018-04-08T20:10:12.309Z,99.90
2018-04-08T20:12:39.791Z,99.90
2018-04-08T20:15:08.054Z,99.90
2018-04-08T20:17:35.532Z,99.90
2018-04-08T20:20:03.010Z,99.90
2018-04-08T20:22:30.507Z,99.90
2018-04-08T20:24:58.934Z,99.90
2018-04-08T20:27:26.444Z,99.90
2018-04-08T20:29:53.918Z,99.90
2018-04-08T20:32:21.419Z,99.90
2018-04-08T20:34:49.662Z,99.90
2018-04-08T20:37:17.149Z,99.90
2018-04-08T20:39:44.658Z,99.90
2018-04-08T20:42:12.273Z,99.90
2018-04-08T20:44:39.790Z,99.90
2018-04-08T20:47:08.033Z,99.90
2018-04-08T20:49:35.545Z,99.90
2018-04-08T20:52:03.794Z,99.90
2018-04-08T20:54:31.280Z,99.90
2018-04-08T20:56:58.784Z,99.90
2018-04-08T20:59:26.262Z,99.90
2018-04-08T21:01:53.754Z,99.90
2018-04-08T21:04:21.231Z,99.90
2018-04-08T21:06:48.730Z,99.90
2018-04-08T21:09:16.214Z,99.90
2018-04-08T21:11:43.684Z,99.90
2018-04-08T21:14:11.182Z,99.90
2018-04-08T21:16:39.526Z,99.90
2018-04-08T21:19:07.017Z,99.90
2018-04-08T21:21:35.270Z,99.90
2018-04-08T21:24:02.778Z,99.90
2018-04-08T21:26:31.023Z,99.90
2018-04-08T21:28:58.502Z,99.90
2018-04-08T21:31:25.998Z,99.90
2018-04-08T21:33:53.474Z,99.90
2018-04-08T21:36:21.733Z,99.90
2018-04-08T21:38:49.210Z,99.90
2018-04-08T21:41:16.703Z,99.90
2018-04-08T21:43:44.954Z,99.90
2018-04-08T21:46:12.460Z,99.90
2018-04-08T21:48:39.959Z,99.90
2018-04-08T21:51:07.439Z,99.90
2018-04-08T21:53:34.943Z,99.90
2018-04-08T21:56:02.450Z,99.90
2018-04-08T21:58:30.722Z,99.90
2018-04-08T22:00:58.194Z,99.90
2018-04-08T22:03:25.696Z,99.90
2018-04-08T22:05:53.176Z,99.90
2018-04-08T22:08:20.680Z,99.90
2018-04-08T22:10:48.166Z,99.90
2018-04-08T22:13:15.662Z,99.90
2018-04-08T22:15:43.914Z,99.90
2018-04-08T22:18:11.413Z,99.90
2018-04-08T22:20:38.899Z,99.90
2018-04-08T22:23:07.194Z,99.90
2018-04-08T22:25:35.434Z,99.90
2018-04-08T22:28:02.921Z,99.90
2018-04-08T22:30:30.434Z,99.90
2018-04-08T22:32:57.906Z,99.90
2018-04-08T22:35:25.410Z,99.90
2018-04-08T22:37:52.908Z,99.90
2018-04-08T22:40:20.409Z,99.90
2018-04-08T22:42:47.887Z,99.90
2018-04-08T22:45:15.390Z,99.90
2018-04-08T22:47:42.872Z,99.90
2018-04-08T22:50:10.378Z,99.90
2018-04-08T22:52:38.627Z,99.90
2018-04-08T22:55:06.139Z,99.90
2018-04-08T22:57:34.414Z,99.90
2018-04-08T23:00:01.898Z,99.90
2018-04-08T23:02:30.186Z,99.90
2018-04-08T23:04:58.425Z,99.90
2018-04-08T23:07:25.902Z,99.90
2018-04-08T23:09:53.406Z,99.90
2018-04-08T23:12:21.671Z,99.90
2018-04-08T23:14:49.174Z,99.90
2018-04-08T23:17:17.415Z,99.90
2018-04-08T23:22:18.786Z,99.90
2018-04-08T23:24:46.287Z,99.90
2018-04-08T23:27:13.790Z,99.90
2018-04-08T23:29:42.074Z,99.90
2018-04-08T23:32:09.550Z,99.90
2018-04-08T23:34:37.827Z,99.90
2018-04-08T23:37:05.304Z,99.90
2018-04-08T23:39:32.805Z,99.90
2018-04-08T23:42:00.310Z,99.90
2018-04-08T23:44:28.151Z,99.90
2018-04-08T23:46:55.650Z,99.90
2018-04-08T23:49:23.160Z,99.90
2018-04-08T23:51:50.670Z,99.90
2018-04-08T23:54:18.142Z,99.90
2018-04-08T23:56:45.622Z,99.90
2018-04-08T23:59:13.134Z,99.90
